Time;durP1;ratioP1;P1;durP2;ratioP2;P2;SDS_P1;SDS_P2;PMS_P1;PMS_P2;Temp;Humidity;BMP_temperature;BMP_pressure;BME280_temperature;BME280_humidity;BME280_pressure;Samples;Min_cycle;Max_cycle;Signal;HPM_P1;HPM_P2
2021/10/27 00:00:38;;;;;;;18.63;2.42;;;;;;;;;;5094159;28;20028;-50
2021/10/27 00:03:04;;;;;;;12.00;2.47;;;;;;;;;;5103461;28;20471;-48
2021/10/27 00:05:29;;;;;;;17.92;2.22;;;;;;;;;;5098209;28;20093;-49
2021/10/27 00:07:55;;;;;;;16.10;2.30;;;;;;;;;;5102084;28;20085;-49
2021/10/27 00:10:21;;;;;;;16.02;2.72;;;;;;;;;;5102557;28;20315;-48
2021/10/27 00:12:47;;;;;;;23.75;2.65;;;;;;;;;;5095585;28;20394;-49
2021/10/27 00:15:15;;;;;;;25.65;3.17;;;;;;;;;;5096699;28;20032;-54
2021/10/27 00:17:41;;;;;;;19.38;3.10;;;;;;;;;;5094442;28;20073;-48
2021/10/27 00:20:09;;;;;;;7.72;1.42;;;;;;;;;;5095282;28;20032;-49
2021/10/27 00:22:35;;;;;;;17.27;2.47;;;;;;;;;;5101832;28;20032;-51
2021/10/27 00:25:01;;;;;;;21.60;2.05;;;;;;;;;;5094995;28;20066;-49
2021/10/27 00:27:27;;;;;;;16.35;2.53;;;;;;;;;;5093358;28;20060;-48
2021/10/27 00:29:52;;;;;;;15.55;1.80;;;;;;;;;;5081757;28;20422;-49
2021/10/27 00:32:18;;;;;;;11.52;1.30;;;;;;;;;;5095200;28;20080;-52
2021/10/27 00:34:43;;;;;;;16.38;1.63;;;;;;;;;;5078327;28;20506;-49
2021/10/27 00:37:09;;;;;;;16.27;1.70;;;;;;;;;;5083233;28;20509;-48
2021/10/27 00:39:36;;;;;;;13.90;1.75;;;;;;;;;;5091335;28;20115;-48
2021/10/27 00:42:02;;;;;;;10.73;2.20;;;;;;;;;;5091073;28;20449;-52
2021/10/27 00:44:27;;;;;;;9.07;1.50;;;;;;;;;;5091477;28;20023;-48
2021/10/27 00:47:04;;;;;;;9.98;1.27;;;;;;;;;;5099349;28;20028;-52
2021/10/27 00:49:30;;;;;;;10.68;1.70;;;;;;;;;;5098059;28;20440;-50
2021/10/27 00:52:01;;;;;;;11.48;1.80;;;;;;;;;;5090787;28;20028;-52
2021/10/27 00:54:28;;;;;;;8.20;1.23;;;;;;;;;;5057680;28;1301173;-52
2021/10/27 00:56:56;;;;;;;12.00;2.08;;;;;;;;;;5093539;28;20650;-52
2021/10/27 00:59:25;;;;;;;12.45;2.20;;;;;;;;;;5094812;28;20031;-49
2021/10/27 01:01:52;;;;;;;10.48;1.42;;;;;;;;;;5098433;28;20028;-50
2021/10/27 01:04:18;;;;;;;10.40;1.35;;;;;;;;;;5093699;28;20039;-52
2021/10/27 01:06:44;;;;;;;13.25;1.58;;;;;;;;;;5095823;28;20035;-53
2021/10/27 01:09:13;;;;;;;5.10;1.00;;;;;;;;;;5097039;28;20394;-50
2021/10/27 01:11:40;;;;;;;8.55;1.40;;;;;;;;;;5096496;28;20023;-51
2021/10/27 01:14:07;;;;;;;9.38;1.10;;;;;;;;;;5098382;28;20128;-51
2021/10/27 01:16:33;;;;;;;9.30;2.03;;;;;;;;;;5099539;28;20035;-49
2021/10/27 01:18:59;;;;;;;5.65;1.00;;;;;;;;;;5097305;28;20024;-50
2021/10/27 01:21:29;;;;;;;5.63;0.88;;;;;;;;;;5095919;28;20073;-51
2021/10/27 01:23:54;;;;;;;7.93;1.15;;;;;;;;;;5091400;28;20043;-50
2021/10/27 01:26:20;;;;;;;7.15;0.65;;;;;;;;;;5088233;28;20036;-53
2021/10/27 01:28:45;;;;;;;4.57;0.68;;;;;;;;;;5094270;28;20493;-50
2021/10/27 01:31:13;;;;;;;7.78;0.70;;;;;;;;;;5091077;28;20028;-52
2021/10/27 01:33:40;;;;;;;5.20;0.73;;;;;;;;;;5095961;28;20092;-52
2021/10/27 01:36:06;;;;;;;4.97;0.57;;;;;;;;;;5085196;28;20038;-52
2021/10/27 01:38:33;;;;;;;5.65;1.23;;;;;;;;;;5095920;28;20542;-49
2021/10/27 01:40:59;;;;;;;7.50;0.90;;;;;;;;;;5089533;28;20032;-53
2021/10/27 01:43:25;;;;;;;9.95;1.50;;;;;;;;;;5091728;28;20027;-53
2021/10/27 01:45:53;;;;;;;6.78;1.00;;;;;;;;;;5092138;28;20498;-49
2021/10/27 01:48:27;;;;;;;7.82;1.15;;;;;;;;;;5099433;28;20077;-49
2021/10/27 01:50:53;;;;;;;5.50;0.65;;;;;;;;;;5091219;28;20062;-51
2021/10/27 01:53:20;;;;;;;7.40;0.60;;;;;;;;;;5080297;28;20063;-49
2021/10/27 01:55:45;;;;;;;3.58;0.50;;;;;;;;;;5096566;28;20646;-52
2021/10/27 01:58:11;;;;;;;3.38;0.50;;;;;;;;;;5093522;28;20067;-52
2021/10/27 02:00:36;;;;;;;6.25;0.80;;;;;;;;;;5091729;28;20028;-54
2021/10/27 02:03:02;;;;;;;3.90;0.68;;;;;;;;;;5098308;28;20031;-53
2021/10/27 02:05:48;;;;;;;11.20;0.90;;;;;;;;;;5095956;28;20654;-53
2021/10/27 02:08:13;;;;;;;6.40;0.75;;;;;;;;;;5095281;28;20050;-53
2021/10/27 02:10:45;;;;;;;5.28;1.00;;;;;;;;;;5089601;28;20103;-54
2021/10/27 02:13:10;;;;;;;7.65;1.00;;;;;;;;;;5096879;28;20467;-50
2021/10/27 02:15:36;;;;;;;12.57;1.42;;;;;;;;;;5099128;28;20118;-53
2021/10/27 02:18:01;;;;;;;14.10;0.90;;;;;;;;;;5100683;28;20482;-52
2021/10/27 02:20:27;;;;;;;5.10;1.35;;;;;;;;;;5100445;28;20412;-53
2021/10/27 02:22:53;;;;;;;7.78;0.70;;;;;;;;;;5095532;28;20036;-53
2021/10/27 02:25:18;;;;;;;9.13;0.80;;;;;;;;;;5089957;28;20032;-49
2021/10/27 02:27:44;;;;;;;4.38;0.52;;;;;;;;;;5095305;28;20486;-50
2021/10/27 02:30:11;;;;;;;8.02;1.00;;;;;;;;;;5098872;28;20044;-52
2021/10/27 02:32:37;;;;;;;3.58;0.43;;;;;;;;;;5098066;28;20063;-53
2021/10/27 02:35:02;;;;;;;5.70;0.50;;;;;;;;;;5101967;28;20100;-52
2021/10/27 02:37:28;;;;;;;2.80;0.73;;;;;;;;;;5100607;28;20023;-53
2021/10/27 02:39:54;;;;;;;5.80;0.70;;;;;;;;;;5090509;28;20112;-50
2021/10/27 02:42:19;;;;;;;2.83;0.30;;;;;;;;;;5089130;28;20040;-49
2021/10/27 02:44:45;;;;;;;3.40;0.50;;;;;;;;;;5090370;28;20020;-53
2021/10/27 02:47:10;;;;;;;6.70;0.40;;;;;;;;;;5094159;28;20046;-52
2021/10/27 02:49:38;;;;;;;3.92;0.52;;;;;;;;;;5095597;28;20030;-53
2021/10/27 02:52:04;;;;;;;3.85;0.38;;;;;;;;;;5092533;28;20028;-52
2021/10/27 02:54:30;;;;;;;5.35;0.52;;;;;;;;;;5092966;28;20436;-51
2021/10/27 02:56:55;;;;;;;2.25;0.45;;;;;;;;;;5091161;28;20032;-49
2021/10/27 02:59:21;;;;;;;4.38;0.32;;;;;;;;;;5101288;28;20028;-48
2021/10/27 03:01:46;;;;;;;2.75;0.40;;;;;;;;;;5097142;28;20032;-51
2021/10/27 03:04:12;;;;;;;6.55;0.50;;;;;;;;;;5078426;28;20043;-50
2021/10/27 03:06:39;;;;;;;3.10;0.32;;;;;;;;;;5098312;28;20457;-49
2021/10/27 03:09:05;;;;;;;7.43;0.43;;;;;;;;;;5098362;28;20081;-51
2021/10/27 03:11:30;;;;;;;0.75;0.30;;;;;;;;;;5097433;28;20363;-50
2021/10/27 03:13:56;;;;;;;0.80;0.20;;;;;;;;;;5097865;28;20032;-53
2021/10/27 03:16:21;;;;;;;2.88;0.40;;;;;;;;;;5094567;28;20028;-50
2021/10/27 03:18:47;;;;;;;2.95;0.30;;;;;;;;;;5093703;28;20039;-49
2021/10/27 03:21:15;;;;;;;1.65;0.30;;;;;;;;;;5098387;28;20401;-49
2021/10/27 03:23:40;;;;;;;2.47;0.35;;;;;;;;;;5075407;28;20426;-52
2021/10/27 03:26:06;;;;;;;4.05;0.70;;;;;;;;;;5097789;28;20115;-52
2021/10/27 03:28:31;;;;;;;1.08;0.22;;;;;;;;;;5091704;28;20028;-49
2021/10/27 03:30:57;;;;;;;0.32;0.10;;;;;;;;;;5090845;28;20024;-48
2021/10/27 03:33:28;;;;;;;2.50;0.20;;;;;;;;;;5092708;28;20110;-51
2021/10/27 03:35:53;;;;;;;3.47;0.25;;;;;;;;;;5102657;28;20035;-51
2021/10/27 03:38:19;;;;;;;1.65;0.10;;;;;;;;;;5094681;28;20502;-53
2021/10/27 03:40:45;;;;;;;0.10;0.10;;;;;;;;;;5092465;28;20126;-53
2021/10/27 03:43:11;;;;;;;0.10;0.10;;;;;;;;;;5097759;28;20078;-49
2021/10/27 03:45:37;;;;;;;1.48;0.10;;;;;;;;;;5096270;28;20050;-50
2021/10/27 03:48:03;;;;;;;0.35;0.10;;;;;;;;;;5099917;28;20539;-51
2021/10/27 03:50:29;;;;;;;0.40;0.10;;;;;;;;;;5097626;28;20058;-50
2021/10/27 03:52:57;;;;;;;1.95;0.10;;;;;;;;;;5094513;28;20056;-50
2021/10/27 03:55:23;;;;;;;0.63;0.20;;;;;;;;;;5096641;28;20044;-52
2021/10/27 03:57:48;;;;;;;0.30;0.10;;;;;;;;;;5098823;28;20047;-50
2021/10/27 04:00:14;;;;;;;3.00;0.20;;;;;;;;;;5091359;28;20028;-49
2021/10/27 04:02:41;;;;;;;1.10;0.10;;;;;;;;;;5097601;28;20032;-52
2021/10/27 04:05:07;;;;;;;1.13;0.10;;;;;;;;;;5099051;28;20455;-49
2021/10/27 04:07:36;;;;;;;2.17;0.20;;;;;;;;;;5094876;28;20161;-51
2021/10/27 04:10:12;;;;;;;0.10;0.10;;;;;;;;;;5098206;28;20028;-52
2021/10/27 04:12:40;;;;;;;1.17;0.17;;;;;;;;;;5092224;28;20088;-52
2021/10/27 04:15:07;;;;;;;0.68;0.10;;;;;;;;;;5098887;28;20156;-52
2021/10/27 04:17:34;;;;;;;0.80;0.20;;;;;;;;;;5098658;28;20494;-52
2021/10/27 04:20:05;;;;;;;0.32;0.10;;;;;;;;;;5093989;28;20035;-53
2021/10/27 04:22:31;;;;;;;0.50;0.20;;;;;;;;;;5099119;28;20486;-51
2021/10/27 04:24:57;;;;;;;1.52;0.10;;;;;;;;;;5100184;28;20031;-52
2021/10/27 04:27:22;;;;;;;0.10;0.10;;;;;;;;;;5092753;28;20035;-52
2021/10/27 04:29:48;;;;;;;1.52;0.10;;;;;;;;;;5093960;28;20032;-52
2021/10/27 04:32:14;;;;;;;0.13;0.10;;;;;;;;;;5081767;28;20367;-52
2021/10/27 04:34:42;;;;;;;1.48;0.10;;;;;;;;;;5097080;28;20058;-50
2021/10/27 04:37:09;;;;;;;0.85;0.10;;;;;;;;;;5093980;28;20024;-52
2021/10/27 04:39:35;;;;;;;1.23;0.10;;;;;;;;;;5097768;28;20089;-51
2021/10/27 04:42:01;;;;;;;0.38;0.17;;;;;;;;;;5102271;28;20463;-50
2021/10/27 04:44:26;;;;;;;4.28;0.32;;;;;;;;;;5105638;28;20084;-52
2021/10/27 04:46:52;;;;;;;1.23;0.20;;;;;;;;;;5097930;28;20028;-51
2021/10/27 04:49:17;;;;;;;0.77;0.20;;;;;;;;;;5096959;28;20566;-52
2021/10/27 04:51:44;;;;;;;1.77;0.28;;;;;;;;;;5096684;28;20395;-52
2021/10/27 04:54:09;;;;;;;0.68;0.10;;;;;;;;;;5089704;28;20399;-51
2021/10/27 04:56:35;;;;;;;1.55;0.20;;;;;;;;;;5095473;28;20028;-53
2021/10/27 04:59:01;;;;;;;0.10;0.10;;;;;;;;;;5100332;28;20600;-52
2021/10/27 05:01:26;;;;;;;0.77;0.10;;;;;;;;;;5093505;28;20516;-52
2021/10/27 05:03:52;;;;;;;0.80;0.13;;;;;;;;;;5097180;28;20020;-50
2021/10/27 05:06:21;;;;;;;4.15;0.10;;;;;;;;;;5097923;28;20059;-53
2021/10/27 05:08:47;;;;;;;0.30;0.10;;;;;;;;;;5094524;28;20114;-50
2021/10/27 05:11:13;;;;;;;2.72;0.20;;;;;;;;;;5096358;28;20226;-48
2021/10/27 05:13:39;;;;;;;1.35;0.30;;;;;;;;;;5096839;28;20261;-50
2021/10/27 05:16:05;;;;;;;0.10;0.10;;;;;;;;;;5099793;28;20031;-47
2021/10/27 05:18:30;;;;;;;1.00;0.17;;;;;;;;;;5083659;28;20028;-48
2021/10/27 05:20:56;;;;;;;3.22;0.30;;;;;;;;;;5094938;28;20040;-49
2021/10/27 05:23:21;;;;;;;2.80;0.47;;;;;;;;;;5094918;28;20043;-48
2021/10/27 05:25:47;;;;;;;1.45;0.20;;;;;;;;;;5095506;28;20032;-48
2021/10/27 05:28:12;;;;;;;7.93;0.65;;;;;;;;;;5080896;28;20047;-48
2021/10/27 05:30:38;;;;;;;2.63;0.25;;;;;;;;;;5096886;28;20546;-49
2021/10/27 05:33:04;;;;;;;3.05;0.50;;;;;;;;;;5094004;28;20452;-48
2021/10/27 05:35:31;;;;;;;1.77;0.30;;;;;;;;;;5093937;28;20114;-48
2021/10/27 05:37:57;;;;;;;1.67;0.35;;;;;;;;;;5092926;28;20100;-49
2021/10/27 05:40:23;;;;;;;5.10;0.60;;;;;;;;;;5095256;28;20790;-48
2021/10/27 05:42:50;;;;;;;0.73;0.20;;;;;;;;;;5091992;28;20023;-52
2021/10/27 05:45:17;;;;;;;2.92;0.32;;;;;;;;;;5091537;28;20028;-49
2021/10/27 05:47:48;;;;;;;1.85;0.90;;;;;;;;;;5096756;28;20383;-51
2021/10/27 05:55:46;;;;;;;1.65;0.20;;;;;;;;;;5099793;28;20059;-49
2021/10/27 05:58:13;;;;;;;1.45;0.22;;;;;;;;;;5097579;28;20083;-50
2021/10/27 06:00:41;;;;;;;0.50;0.20;;;;;;;;;;5090243;28;20659;-50
2021/10/27 06:03:07;;;;;;;1.67;0.20;;;;;;;;;;5092185;28;20490;-49
2021/10/27 06:05:32;;;;;;;0.90;0.32;;;;;;;;;;5093797;28;20036;-51
2021/10/27 06:07:58;;;;;;;2.63;0.35;;;;;;;;;;5099486;28;20028;-50
2021/10/27 06:10:25;;;;;;;3.13;0.30;;;;;;;;;;5090581;28;20077;-49
2021/10/27 06:12:54;;;;;;;2.63;0.30;;;;;;;;;;5091886;28;20023;-50
2021/10/27 06:15:22;;;;;;;2.25;0.40;;;;;;;;;;5097153;28;20437;-49
2021/10/27 06:17:48;;;;;;;3.10;0.30;;;;;;;;;;5098633;28;20031;-51
2021/10/27 06:20:14;;;;;;;0.93;0.20;;;;;;;;;;5094414;28;20062;-52
2021/10/27 06:22:40;;;;;;;3.13;0.50;;;;;;;;;;5085994;28;20034;-51
2021/10/27 06:25:08;;;;;;;3.33;0.40;;;;;;;;;;5097280;28;20035;-48
2021/10/27 06:27:34;;;;;;;3.88;1.10;;;;;;;;;;5094437;28;20437;-48
2021/10/27 06:30:07;;;;;;;2.65;0.47;;;;;;;;;;5085363;28;20110;-50
2021/10/27 06:35:04;;;;;;;3.30;0.30;;;;;;;;;;5098156;28;20034;-50
2021/10/27 06:48:09;;;;;;;3.95;0.40;;;;;;;;;;5101310;28;20038;-51
2021/10/27 06:50:35;;;;;;;3.20;0.70;;;;;;;;;;5095575;28;20456;-50
2021/10/27 06:53:01;;;;;;;2.42;0.50;;;;;;;;;;5075386;28;20107;-49
2021/10/27 06:55:27;;;;;;;2.67;0.40;;;;;;;;;;5090910;28;20048;-50
2021/10/27 06:57:53;;;;;;;9.20;0.73;;;;;;;;;;5089102;28;20048;-50
2021/10/27 07:00:33;;;;;;;4.90;0.68;;;;;;;;;;5091222;28;20020;-50
2021/10/27 07:16:24;;;;;;;3.58;0.50;;;;;;;;;;5095880;28;20096;-48
2021/10/27 07:18:49;;;;;;;2.95;0.50;;;;;;;;;;5098595;28;20048;-49
2021/10/27 07:21:15;;;;;;;5.75;0.40;;;;;;;;;;5092098;28;20032;-48
2021/10/27 07:23:41;;;;;;;4.20;1.20;;;;;;;;;;5096209;28;20486;-49
2021/10/27 07:26:07;;;;;;;5.68;0.38;;;;;;;;;;5096291;28;20050;-49
2021/10/27 07:28:33;;;;;;;12.98;0.80;;;;;;;;;;5094257;28;20075;-49
2021/10/27 07:31:00;;;;;;;2.55;0.60;;;;;;;;;;5099719;28;20059;-53
2021/10/27 07:33:28;;;;;;;3.40;0.50;;;;;;;;;;5099486;28;20483;-52
2021/10/27 07:36:01;;;;;;;2.30;0.50;;;;;;;;;;5097247;28;20032;-51
2021/10/27 07:41:11;;;;;;;5.60;0.55;;;;;;;;;;5096363;28;20035;-54
2021/10/27 07:43:37;;;;;;;3.22;0.60;;;;;;;;;;5095694;28;20193;-50
2021/10/27 07:46:03;;;;;;;2.15;0.20;;;;;;;;;;5095031;27;20569;-49
2021/10/27 07:48:30;;;;;;;3.92;0.20;;;;;;;;;;5098346;28;20057;-51
2021/10/27 07:50:59;;;;;;;3.72;0.47;;;;;;;;;;5091521;28;20506;-49
2021/10/27 07:53:27;;;;;;;2.50;0.38;;;;;;;;;;5076464;28;20066;-53
2021/10/27 07:55:56;;;;;;;1.58;0.30;;;;;;;;;;5094826;28;20329;-50
2021/10/27 07:58:26;;;;;;;2.47;0.40;;;;;;;;;;5080061;28;20020;-51
2021/10/27 08:00:59;;;;;;;0.47;0.13;;;;;;;;;;5081499;28;20028;-48
2021/10/27 08:03:31;;;;;;;1.00;0.20;;;;;;;;;;5099641;28;20051;-49
2021/10/27 08:06:02;;;;;;;1.60;0.15;;;;;;;;;;5102372;28;20031;-50
2021/10/27 08:08:28;;;;;;;1.85;0.30;;;;;;;;;;5103674;28;20142;-50
2021/10/27 08:10:56;;;;;;;1.40;0.22;;;;;;;;;;5090508;28;20245;-49
2021/10/27 08:13:21;;;;;;;0.25;0.13;;;;;;;;;;5084400;28;20054;-49
2021/10/27 08:15:47;;;;;;;0.75;0.10;;;;;;;;;;5094220;28;20032;-53
2021/10/27 08:18:15;;;;;;;0.43;0.20;;;;;;;;;;5100969;28;20351;-48
2021/10/27 08:20:42;;;;;;;0.88;0.20;;;;;;;;;;5093390;28;20055;-51
2021/10/27 08:23:10;;;;;;;1.55;0.10;;;;;;;;;;5096138;28;20036;-51
2021/10/27 08:25:48;;;;;;;0.73;0.10;;;;;;;;;;5097793;28;20100;-49
2021/10/27 08:28:18;;;;;;;1.90;0.30;;;;;;;;;;5102368;28;20062;-50
2021/10/27 08:35:57;;;;;;;0.47;0.20;;;;;;;;;;5100134;28;20043;-51
2021/10/27 08:38:25;;;;;;;1.33;0.13;;;;;;;;;;5099112;28;20024;-52
2021/10/27 08:40:51;;;;;;;3.40;0.20;;;;;;;;;;5097870;28;20035;-54
2021/10/27 08:43:19;;;;;;;0.10;0.10;;;;;;;;;;5090536;28;20036;-53
2021/10/27 08:45:45;;;;;;;0.73;0.10;;;;;;;;;;5103049;28;20032;-54
2021/10/27 08:48:12;;;;;;;0.10;0.10;;;;;;;;;;5095331;28;20500;-51
2021/10/27 08:50:49;;;;;;;2.20;0.17;;;;;;;;;;5099505;28;20032;-51
2021/10/27 08:53:18;;;;;;;0.28;0.10;;;;;;;;;;5096570;28;20117;-53
2021/10/27 08:55:46;;;;;;;1.15;0.28;;;;;;;;;;5092728;28;20056;-50
2021/10/27 08:58:16;;;;;;;0.50;0.10;;;;;;;;;;5090083;28;20036;-54
2021/10/27 09:00:59;;;;;;;1.25;0.20;;;;;;;;;;5096776;28;20028;-54
2021/10/27 09:36:14;;;;;;;6.30;0.43;;;;;;;;;;5096528;28;20042;-52
2021/10/27 10:04:07;;;;;;;2.75;0.30;;;;;;;;;;5098067;28;20513;-51
2021/10/27 10:06:36;;;;;;;1.30;0.20;;;;;;;;;;5096423;28;20031;-53
2021/10/27 10:09:03;;;;;;;0.93;0.28;;;;;;;;;;5096667;28;20029;-54
2021/10/27 10:11:30;;;;;;;0.25;0.13;;;;;;;;;;5098568;28;20043;-57
2021/10/27 10:13:58;;;;;;;0.90;0.10;;;;;;;;;;5088696;28;20028;-57
2021/10/27 10:16:25;;;;;;;0.65;0.30;;;;;;;;;;5094627;28;20517;-56
2021/10/27 10:18:51;;;;;;;0.43;0.20;;;;;;;;;;5095323;28;20057;-55
2021/10/27 10:21:28;;;;;;;0.65;0.10;;;;;;;;;;5075214;28;20036;-56
2021/10/27 10:24:26;;;;;;;1.05;0.40;;;;;;;;;;5091238;28;20061;-55
2021/10/27 10:26:53;;;;;;;0.68;0.25;;;;;;;;;;5083796;28;20047;-56
2021/10/27 10:32:22;;;;;;;0.40;0.10;;;;;;;;;;5091736;28;20051;-57
2021/10/27 10:34:53;;;;;;;0.55;0.20;;;;;;;;;;5094927;28;20074;-55
2021/10/27 10:38:07;;;;;;;0.30;0.20;;;;;;;;;;5099629;28;20581;-56
2021/10/27 10:40:49;;;;;;;1.25;0.20;;;;;;;;;;5091890;28;20032;-55
2021/10/27 11:39:08;;;;;;;2.50;0.28;;;;;;;;;;5069902;28;20131;-55
2021/10/27 11:41:45;;;;;;;0.20;0.20;;;;;;;;;;5054773;28;20499;-55
2021/10/27 11:44:15;;;;;;;0.38;0.20;;;;;;;;;;5063080;28;20036;-56
2021/10/27 11:47:07;;;;;;;0.10;0.10;;;;;;;;;;5054799;28;20064;-56
2021/10/27 11:49:37;;;;;;;0.30;0.20;;;;;;;;;;5056435;28;20109;-55
2021/10/27 11:52:06;;;;;;;0.55;0.20;;;;;;;;;;5058184;28;20100;-55
2021/10/27 11:54:34;;;;;;;0.50;0.10;;;;;;;;;;5049378;28;20420;-55
2021/10/27 11:57:02;;;;;;;0.68;0.30;;;;;;;;;;5065220;28;20032;-56
2021/10/27 11:59:44;;;;;;;0.30;0.20;;;;;;;;;;5053054;28;20531;-56
2021/10/27 12:02:09;;;;;;;0.38;0.15;;;;;;;;;;5076705;28;20048;-56
2021/10/27 12:04:36;;;;;;;1.45;0.20;;;;;;;;;;5078232;28;20039;-56
2021/10/27 12:07:36;;;;;;;0.65;0.10;;;;;;;;;;5076820;28;20028;-56
2021/10/27 12:18:01;;;;;;;1.65;0.10;;;;;;;;;;5077865;28;20425;-57
2021/10/27 12:20:52;;;;;;;0.88;0.20;;;;;;;;;;5074992;28;20040;-56
2021/10/27 12:23:26;;;;;;;1.15;0.20;;;;;;;;;;5080252;28;20107;-56
2021/10/27 12:26:15;;;;;;;0.73;0.20;;;;;;;;;;5081873;28;20028;-56
2021/10/27 12:28:41;;;;;;;4.55;0.50;;;;;;;;;;5076288;28;20031;-56
2021/10/27 12:31:20;;;;;;;1.58;0.20;;;;;;;;;;5074021;28;20135;-56
2021/10/27 12:33:47;;;;;;;4.35;0.30;;;;;;;;;;5074351;28;20747;-56
2021/10/27 12:36:28;;;;;;;2.58;0.40;;;;;;;;;;5076635;28;20032;-56
2021/10/27 12:39:30;;;;;;;1.63;0.28;;;;;;;;;;5077871;28;20028;-56
2021/10/27 12:42:07;;;;;;;2.22;0.28;;;;;;;;;;5077022;28;20028;-56
2021/10/27 12:44:43;;;;;;;4.28;0.30;;;;;;;;;;5078933;28;20286;-57
2021/10/27 12:47:22;;;;;;;3.83;0.40;;;;;;;;;;5081749;28;20126;-56
2021/10/27 12:50:02;;;;;;;3.20;0.45;;;;;;;;;;5075745;28;20498;-57
2021/10/27 12:52:34;;;;;;;5.50;0.50;;;;;;;;;;5076090;28;20028;-57
2021/10/27 12:55:10;;;;;;;3.33;0.60;;;;;;;;;;5080891;28;20076;-57
2021/10/27 12:58:13;;;;;;;2.78;0.50;;;;;;;;;;5097358;28;20039;-57
2021/10/27 13:08:51;;;;;;;3.72;0.43;;;;;;;;;;5095639;28;20046;-57
2021/10/27 13:14:09;;;;;;;1.88;0.43;;;;;;;;;;5093543;28;20028;-56
2021/10/27 13:30:15;;;;;;;1.73;0.40;;;;;;;;;;5102179;28;20042;-57
2021/10/27 13:32:45;;;;;;;2.30;0.30;;;;;;;;;;5098498;28;20491;-58
2021/10/27 13:35:11;;;;;;;0.57;0.30;;;;;;;;;;5096182;28;20032;-58
2021/10/27 13:37:36;;;;;;;1.75;0.38;;;;;;;;;;5097057;28;20042;-58
2021/10/27 13:40:06;;;;;;;0.77;0.20;;;;;;;;;;5096107;28;20032;-58
2021/10/27 13:42:44;;;;;;;1.13;0.20;;;;;;;;;;5091059;28;20039;-58
2021/10/27 13:45:29;;;;;;;0.63;0.20;;;;;;;;;;5095599;28;20415;-58
2021/10/27 13:48:16;;;;;;;0.75;0.20;;;;;;;;;;5094751;28;20032;-58
2021/10/27 13:59:13;;;;;;;1.33;0.20;;;;;;;;;;5092390;28;20042;-58
2021/10/27 14:09:43;;;;;;;1.77;0.30;;;;;;;;;;5093389;28;20395;-58
2021/10/27 14:14:57;;;;;;;3.80;0.30;;;;;;;;;;5090742;28;20402;-58
2021/10/27 14:39:17;;;;;;;1.90;0.22;;;;;;;;;;5092396;28;20429;-58
2021/10/27 15:19:58;;;;;;;0.43;0.10;;;;;;;;;;5097931;28;20066;-57
2021/10/27 15:28:03;;;;;;;0.57;0.10;;;;;;;;;;5093930;28;20069;-57
2021/10/27 15:51:23;;;;;;;1.02;0.10;;;;;;;;;;5112084;27;20549;-56
2021/10/27 15:53:53;;;;;;;0.55;0.00;;;;;;;;;;5113392;27;20490;-57
2021/10/27 15:56:20;;;;;;;1.63;0.17;;;;;;;;;;5115364;27;20056;-56
2021/10/27 15:58:46;;;;;;;3.35;0.15;;;;;;;;;;5112339;27;20024;-53
2021/10/27 16:01:11;;;;;;;1.60;0.05;;;;;;;;;;5103038;27;20036;-55
2021/10/27 16:03:37;;;;;;;1.15;0.43;;;;;;;;;;5094484;28;20323;-55
2021/10/27 16:06:03;;;;;;;0.40;0.10;;;;;;;;;;5096412;28;20039;-56
2021/10/27 16:08:30;;;;;;;2.25;0.22;;;;;;;;;;5102167;28;20517;-59
2021/10/27 16:10:57;;;;;;;5.10;0.50;;;;;;;;;;5101989;28;20050;-57
2021/10/27 16:13:24;;;;;;;3.15;0.28;;;;;;;;;;5097583;28;20101;-54
2021/10/27 16:15:57;;;;;;;1.08;0.10;;;;;;;;;;5096769;28;20040;-55
2021/10/27 16:18:24;;;;;;;1.20;0.10;;;;;;;;;;5104340;28;20402;-52
2021/10/27 16:20:50;;;;;;;1.88;0.20;;;;;;;;;;5098791;28;20123;-56
2021/10/27 16:23:16;;;;;;;1.35;0.10;;;;;;;;;;5087432;27;20058;-55
2021/10/27 16:25:43;;;;;;;1.42;0.10;;;;;;;;;;5087282;27;20032;-56
2021/10/27 16:28:09;;;;;;;1.80;0.10;;;;;;;;;;5090633;27;20111;-57
2021/10/27 16:30:35;;;;;;;0.73;0.10;;;;;;;;;;5095854;27;20110;-55
2021/10/27 16:33:02;;;;;;;1.35;0.10;;;;;;;;;;5090049;27;20493;-54
2021/10/27 16:35:28;;;;;;;1.30;0.10;;;;;;;;;;5092971;27;20501;-53
2021/10/27 16:37:54;;;;;;;2.00;0.20;;;;;;;;;;5104044;28;20039;-55
2021/10/27 16:40:20;;;;;;;3.33;0.20;;;;;;;;;;5103239;28;20047;-57
2021/10/27 16:42:47;;;;;;;0.82;0.10;;;;;;;;;;5092022;28;20087;-56
2021/10/27 16:45:14;;;;;;;1.63;0.17;;;;;;;;;;5101224;28;20055;-56
2021/10/27 16:47:40;;;;;;;1.60;0.30;;;;;;;;;;5102157;28;20481;-56
2021/10/27 16:50:08;;;;;;;1.95;0.82;;;;;;;;;;5100298;28;20046;-56
2021/10/27 16:52:35;;;;;;;0.98;0.20;;;;;;;;;;5099109;28;20371;-56
2021/10/27 16:55:03;;;;;;;1.55;0.15;;;;;;;;;;5099843;28;20052;-56
2021/10/27 16:57:28;;;;;;;0.35;0.22;;;;;;;;;;5097233;27;20100;-56
2021/10/27 16:59:54;;;;;;;0.43;0.10;;;;;;;;;;5094878;28;20031;-57
2021/10/27 17:02:20;;;;;;;0.55;0.10;;;;;;;;;;5092231;28;20032;-58
2021/10/27 17:04:45;;;;;;;2.00;0.20;;;;;;;;;;5094587;28;20028;-56
2021/10/27 17:07:12;;;;;;;2.33;0.45;;;;;;;;;;5099514;28;20494;-55
2021/10/27 17:09:38;;;;;;;4.10;0.47;;;;;;;;;;5093478;27;20451;-56
2021/10/27 17:12:06;;;;;;;0.80;0.20;;;;;;;;;;5094035;28;20028;-54
2021/10/27 17:14:33;;;;;;;1.23;0.20;;;;;;;;;;5096044;28;20036;-56
2021/10/27 17:16:59;;;;;;;1.05;0.17;;;;;;;;;;5094137;28;20070;-56
2021/10/27 17:19:24;;;;;;;0.40;0.10;;;;;;;;;;5105409;27;20059;-56
2021/10/27 17:21:50;;;;;;;1.27;0.40;;;;;;;;;;5089595;28;20032;-56
2021/10/27 17:24:17;;;;;;;1.88;0.30;;;;;;;;;;5091205;28;20031;-56
2021/10/27 17:26:43;;;;;;;1.52;0.30;;;;;;;;;;5094542;28;20035;-56
2021/10/27 17:29:10;;;;;;;2.80;0.20;;;;;;;;;;5088981;28;20414;-56
2021/10/27 17:31:36;;;;;;;5.20;0.30;;;;;;;;;;5080551;28;20430;-56
2021/10/27 17:34:01;;;;;;;0.77;0.10;;;;;;;;;;5092580;28;20050;-53
2021/10/27 17:36:27;;;;;;;0.90;0.17;;;;;;;;;;5094764;28;20123;-53
2021/10/27 17:38:53;;;;;;;0.77;0.10;;;;;;;;;;5094741;28;20032;-54
2021/10/27 17:41:20;;;;;;;1.70;0.20;;;;;;;;;;5095731;28;20031;-56
2021/10/27 17:43:47;;;;;;;0.75;0.20;;;;;;;;;;5094186;28;20494;-53
2021/10/27 17:46:14;;;;;;;0.60;0.10;;;;;;;;;;5099910;28;20569;-55
2021/10/27 17:48:47;;;;;;;0.43;0.10;;;;;;;;;;5095838;28;20020;-55
2021/10/27 17:51:17;;;;;;;0.98;0.20;;;;;;;;;;5103570;27;20561;-54
2021/10/27 17:59:11;;;;;;;2.60;0.20;;;;;;;;;;5096437;28;20058;-56
2021/10/27 18:01:38;;;;;;;2.70;0.10;;;;;;;;;;5092795;28;20032;-57
2021/10/27 18:04:05;;;;;;;0.52;0.15;;;;;;;;;;5074085;28;20959;-55
2021/10/27 18:06:32;;;;;;;0.95;0.13;;;;;;;;;;5070130;27;20084;-55
2021/10/27 18:08:58;;;;;;;0.75;0.13;;;;;;;;;;5095134;27;20020;-54
2021/10/27 18:11:26;;;;;;;3.03;0.30;;;;;;;;;;5097048;28;20058;-55
2021/10/27 18:16:52;;;;;;;1.05;0.20;;;;;;;;;;5066139;28;20051;-56
2021/10/27 18:19:38;;;;;;;0.45;0.10;;;;;;;;;;5090869;28;20122;-55
2021/10/27 18:42:44;;;;;;;0.20;0.00;;;;;;;;;;5099506;28;20125;-56
2021/10/27 18:45:13;;;;;;;0.17;0.00;;;;;;;;;;5080443;28;20035;-53
2021/10/27 18:47:39;;;;;;;1.45;0.32;;;;;;;;;;5090638;28;20075;-53
2021/10/27 18:50:07;;;;;;;0.20;0.00;;;;;;;;;;5092548;28;20058;-54
2021/10/27 18:55:03;;;;;;;0.47;0.00;;;;;;;;;;5101262;28;21590;-56
2021/10/27 19:00:43;;;;;;;0.15;0.00;;;;;;;;;;5070149;28;20072;-54
2021/10/27 19:03:29;;;;;;;0.70;0.10;;;;;;;;;;5092108;28;20044;-53
2021/10/27 19:11:21;;;;;;;0.65;0.20;;;;;;;;;;5111743;27;20452;-55
2021/10/27 19:16:18;;;;;;;0.45;0.10;;;;;;;;;;5093499;28;20546;-55
2021/10/27 19:18:44;;;;;;;1.00;0.22;;;;;;;;;;5094444;28;20467;-53
2021/10/27 19:21:11;;;;;;;2.08;0.30;;;;;;;;;;5101107;27;20039;-55
2021/10/27 19:23:38;;;;;;;2.35;0.30;;;;;;;;;;5096313;28;20405;-55
2021/10/27 19:26:09;;;;;;;1.27;0.10;;;;;;;;;;5100375;28;20528;-53
2021/10/27 19:34:04;;;;;;;0.50;0.17;;;;;;;;;;5099733;28;20213;-56
2021/10/27 20:53:53;;;;;;;1.90;0.25;;;;;;;;;;5094438;28;20146;-58
2021/10/27 20:56:21;;;;;;;4.07;0.17;;;;;;;;;;5095844;27;20096;-58
2021/10/27 20:58:59;;;;;;;1.48;0.15;;;;;;;;;;5091828;28;20044;-58
2021/10/27 21:01:39;;;;;;;1.85;0.30;;;;;;;;;;5094263;28;20028;-58
2021/10/27 21:14:41;;;;;;;2.40;0.10;;;;;;;;;;5100587;28;20038;-59
2021/10/27 21:17:07;;;;;;;0.65;0.10;;;;;;;;;;5091161;28;20046;-58
2021/10/27 21:19:32;;;;;;;3.35;0.20;;;;;;;;;;5089997;28;20027;-57
2021/10/27 21:21:58;;;;;;;5.30;0.65;;;;;;;;;;5096634;28;20059;-57
2021/10/27 21:24:24;;;;;;;2.25;0.20;;;;;;;;;;5095496;28;20368;-58
2021/10/27 21:26:50;;;;;;;2.45;0.20;;;;;;;;;;5097712;28;20027;-56
2021/10/27 21:29:33;;;;;;;1.25;0.20;;;;;;;;;;5091933;28;20549;-56
2021/10/27 21:42:44;;;;;;;2.22;0.20;;;;;;;;;;5091824;28;20077;-57
2021/10/27 21:45:13;;;;;;;4.03;0.17;;;;;;;;;;5094704;28;20032;-57
2021/10/27 21:47:39;;;;;;;2.05;0.10;;;;;;;;;;5094797;27;20482;-57
2021/10/27 21:50:16;;;;;;;0.20;0.10;;;;;;;;;;5094696;28;20042;-58
2021/10/27 21:52:47;;;;;;;0.47;0.10;;;;;;;;;;5093752;28;20417;-57
2021/10/27 21:55:12;;;;;;;1.27;0.13;;;;;;;;;;5093878;28;20048;-57
2021/10/27 21:57:38;;;;;;;0.45;0.10;;;;;;;;;;5090909;28;20046;-57
2021/10/27 22:00:07;;;;;;;0.47;0.10;;;;;;;;;;5092514;28;20023;-57
2021/10/27 22:02:32;;;;;;;0.47;0.10;;;;;;;;;;5092354;28;20024;-58
2021/10/27 22:04:58;;;;;;;1.38;0.15;;;;;;;;;;5075288;28;20130;-58
2021/10/27 22:07:25;;;;;;;2.40;0.10;;;;;;;;;;5092775;28;20024;-57
2021/10/27 22:09:50;;;;;;;0.00;0.00;;;;;;;;;;5091816;28;20024;-57
2021/10/27 22:12:16;;;;;;;0.70;0.05;;;;;;;;;;5097753;28;20028;-57